createdAt,value
2022-08-12T00:02:43.625Z,59.80
2022-08-12T00:06:05.041Z,60.40
2022-08-12T00:09:26.787Z,60.20
2022-08-12T00:12:47.216Z,63.00
2022-08-12T00:16:07.799Z,62.10
2022-08-12T00:19:27.721Z,60.90
2022-08-12T00:22:58.743Z,58.80
2022-08-12T00:26:23.621Z,62.10
2022-08-12T00:29:47.959Z,61.90
2022-08-12T00:33:09.558Z,62.40
2022-08-12T00:36:35.006Z,64.00
2022-08-12T00:39:57.898Z,64.00
2022-08-12T00:43:00.059Z,65.60
2022-08-12T00:46:20.493Z,65.10
2022-08-12T00:49:23.655Z,63.10
2022-08-12T00:52:25.763Z,63.40
2022-08-12T00:55:27.468Z,64.60
2022-08-12T00:58:32.504Z,64.90
2022-08-12T01:02:02.202Z,65.90
2022-08-12T01:05:29.828Z,65.60
2022-08-12T01:08:50.483Z,64.00
2022-08-12T01:11:54.247Z,64.90
2022-08-12T01:14:57.834Z,66.20
2022-08-12T01:17:59.576Z,66.70
2022-08-12T01:21:27.247Z,67.10
2022-08-12T01:24:43.820Z,65.20
2022-08-12T01:27:49.912Z,68.50
2022-08-12T01:30:52.594Z,67.70
2022-08-12T01:34:35.471Z,67.90
2022-08-12T01:37:30.755Z,69.40
2022-08-12T01:40:38.168Z,69.80
2022-08-12T01:43:42.289Z,69.50
2022-08-12T01:47:27.964Z,69.20
2022-08-12T01:51:00.568Z,66.00
2022-08-12T01:54:13.845Z,66.80
2022-08-12T01:57:58.328Z,67.40
2022-08-12T02:01:08.962Z,69.90
2022-08-12T02:04:53.405Z,70.90
2022-08-12T02:08:42.525Z,69.80
2022-08-12T02:12:43.905Z,67.10
2022-08-12T02:15:58.830Z,66.50
2022-08-12T02:19:34.797Z,70.40
2022-08-12T02:22:41.181Z,68.30
2022-08-12T02:25:47.447Z,70.40
2022-08-12T02:28:49.416Z,71.00
2022-08-12T02:31:52.940Z,70.70
2022-08-12T02:34:56.322Z,71.20
2022-08-12T02:38:02.239Z,71.20
2022-08-12T02:41:05.136Z,73.00
2022-08-12T02:44:09.989Z,71.60
2022-08-12T02:47:55.553Z,71.70
2022-08-12T02:50:44.607Z,71.70
2022-08-12T02:54:04.549Z,71.70
2022-08-12T02:57:07.891Z,72.20
2022-08-12T03:00:11.875Z,72.40
2022-08-12T03:03:15.154Z,71.40
2022-08-12T03:06:21.689Z,72.20
2022-08-12T03:09:26.712Z,73.50
2022-08-12T03:12:49.017Z,73.20
2022-08-12T03:15:56.047Z,71.00
2022-08-12T03:18:58.273Z,73.30
2022-08-12T03:22:12.993Z,72.70
2022-08-12T03:25:24.941Z,73.00
2022-08-12T03:28:48.217Z,70.70
2022-08-12T03:31:50.815Z,72.80
2022-08-12T03:34:57.180Z,72.40
2022-08-12T03:38:00.906Z,73.10
2022-08-12T03:41:24.760Z,73.90
2022-08-12T03:44:56.421Z,73.20
2022-08-12T03:48:32.046Z,72.40
2022-08-12T03:51:52.477Z,71.30
2022-08-12T03:55:14.014Z,71.20
2022-08-12T03:58:35.100Z,71.60
2022-08-12T04:01:40.921Z,73.10
2022-08-12T04:04:45.259Z,73.90
2022-08-12T04:07:58.047Z,74.00
2022-08-12T04:11:18.897Z,73.40
2022-08-12T04:14:20.697Z,72.20
2022-08-12T04:17:22.787Z,73.60
2022-08-12T04:20:24.518Z,74.10
2022-08-12T04:23:27.432Z,74.40
2022-08-12T04:26:29.621Z,74.60
2022-08-12T04:30:21.316Z,74.60
2022-08-12T04:32:54.154Z,74.50
2022-08-12T04:35:56.062Z,74.70
2022-08-12T04:38:59.817Z,74.30
2022-08-12T04:42:01.601Z,75.10
2022-08-12T04:45:03.814Z,75.20
2022-08-12T04:48:06.595Z,75.10
2022-08-12T04:51:08.687Z,76.00
2022-08-12T04:54:10.285Z,75.50
2022-08-12T04:57:12.084Z,79.10
2022-08-12T05:00:16.525Z,75.90
2022-08-12T05:03:18.257Z,75.40
2022-08-12T05:06:27.081Z,75.80
2022-08-12T05:09:58.992Z,76.10
2022-08-12T05:12:59.905Z,76.00
2022-08-12T05:16:04.827Z,74.60
2022-08-12T05:19:12.689Z,75.70
2022-08-12T05:22:14.640Z,76.10
2022-08-12T05:25:18.454Z,76.30
2022-08-12T05:28:20.124Z,75.90
2022-08-12T05:31:42.554Z,76.70
2022-08-12T05:34:44.246Z,76.60
2022-08-12T05:37:45.824Z,76.50
2022-08-12T05:40:48.458Z,76.50
2022-08-12T05:44:16.197Z,76.80
2022-08-12T05:47:18.115Z,76.10
2022-08-12T05:50:19.785Z,76.50
2022-08-12T05:53:21.388Z,76.20
2022-08-12T05:56:26.144Z,76.70
2022-08-12T05:59:27.761Z,76.00
2022-08-12T06:02:29.456Z,75.30
2022-08-12T06:05:54.484Z,75.00
2022-08-12T06:08:57.433Z,74.60
2022-08-12T06:12:06.050Z,75.10
2022-08-12T06:15:08.369Z,74.00
2022-08-12T06:18:16.093Z,74.30
2022-08-12T06:21:21.606Z,73.60
2022-08-12T06:24:28.325Z,72.70
2022-08-12T06:27:29.891Z,72.50
2022-08-12T06:30:37.989Z,72.30
2022-08-12T06:34:01.091Z,71.80
2022-08-12T06:37:07.240Z,71.30
2022-08-12T06:40:12.597Z,71.10
2022-08-12T06:43:14.494Z,70.40
2022-08-12T06:46:16.099Z,70.20
2022-08-12T06:49:17.830Z,69.70
2022-08-12T06:52:24.995Z,69.00
2022-08-12T06:55:26.798Z,69.10
2022-08-12T06:58:30.080Z,69.80
2022-08-12T07:01:32.054Z,69.40
2022-08-12T07:04:37.789Z,69.00
2022-08-12T07:07:39.845Z,70.10
2022-08-12T07:10:43.928Z,67.40
2022-08-12T07:14:11.707Z,69.10
2022-08-12T07:17:13.839Z,67.30
2022-08-12T07:20:49.842Z,67.20
2022-08-12T07:23:41.530Z,66.70
2022-08-12T07:26:44.654Z,66.90
2022-08-12T07:30:02.686Z,65.90
2022-08-12T07:33:08.910Z,65.50
2022-08-12T07:36:13.997Z,65.90
2022-08-12T07:39:15.704Z,66.00
2022-08-12T07:42:17.381Z,66.20
2022-08-12T07:45:24.476Z,66.80
2022-08-12T07:48:26.833Z,66.30
2022-08-12T07:51:29.328Z,64.80
2022-08-12T07:54:30.980Z,64.70
2022-08-12T07:57:33.013Z,65.00
2022-08-12T08:00:37.696Z,65.00
2022-08-12T08:04:00.163Z,64.20
2022-08-12T08:07:01.783Z,64.10
2022-08-12T08:10:06.782Z,64.20
2022-08-12T08:13:08.713Z,62.90
2022-08-12T08:16:10.310Z,63.10
2022-08-12T08:19:23.756Z,63.10
2022-08-12T08:22:40.636Z,63.20
2022-08-12T08:25:45.073Z,63.60
2022-08-12T08:28:46.719Z,65.00
2022-08-12T08:31:54.652Z,61.60
2022-08-12T08:34:56.203Z,62.60
2022-08-12T08:38:14.763Z,61.50
2022-08-12T08:42:16.579Z,59.40
2022-08-12T08:45:13.150Z,61.40
2022-08-12T08:48:16.552Z,61.20
2022-08-12T08:51:18.169Z,62.90
2022-08-12T08:54:19.790Z,61.00
2022-08-12T08:57:21.619Z,59.70
2022-08-12T09:00:23.514Z,58.50
2022-08-12T09:05:07.152Z,60.30
2022-08-12T09:06:56.350Z,58.80
2022-08-12T09:14:10.770Z,59.90
2022-08-12T09:16:50.929Z,59.00
2022-08-12T09:19:58.004Z,59.80
2022-08-12T09:23:01.281Z,59.30
2022-08-12T09:26:09.886Z,59.30
2022-08-12T09:29:16.543Z,57.40
2022-08-12T09:32:56.096Z,56.00
2022-08-12T09:35:44.298Z,57.10
2022-08-12T09:38:59.083Z,55.80
2022-08-12T09:42:38.776Z,58.60
2022-08-12T09:46:14.105Z,54.80
2022-08-12T09:49:13.502Z,58.10
2022-08-12T09:52:19.076Z,57.50
2022-08-12T09:56:06.301Z,57.10
2022-08-12T09:59:00.455Z,55.80
2022-08-12T10:02:45.959Z,58.00
2022-08-12T10:06:26.461Z,56.50
2022-08-12T10:08:52.378Z,57.00
2022-08-12T10:12:14.664Z,57.10
2022-08-12T10:16:02.504Z,55.60
2022-08-12T10:19:06.457Z,55.40
2022-08-12T10:22:39.215Z,56.10
2022-08-12T10:26:34.914Z,57.10
2022-08-12T10:30:37.984Z,54.30
2022-08-12T10:33:00.923Z,53.80
2022-08-12T10:36:05.079Z,54.90
2022-08-12T10:40:05.609Z,54.00
2022-08-12T10:43:00.524Z,55.10
2022-08-12T10:46:02.457Z,55.00
2022-08-12T10:50:02.279Z,55.60
2022-08-12T10:52:38.916Z,54.60
2022-08-12T10:55:41.529Z,54.70
2022-08-12T10:58:46.940Z,55.40
2022-08-12T11:04:20.197Z,54.50
2022-08-12T11:07:08.364Z,54.40
2022-08-12T11:08:43.245Z,54.40
2022-08-12T11:12:36.832Z,55.60
2022-08-12T11:15:19.046Z,53.50
2022-08-12T11:18:25.711Z,53.70
2022-08-12T11:21:56.862Z,51.70
2022-08-12T11:24:51.040Z,53.40
2022-08-12T11:27:53.379Z,52.80
2022-08-12T11:30:55.324Z,53.80
2022-08-12T11:34:04.730Z,52.80
2022-08-12T11:37:25.863Z,53.70
2022-08-12T11:40:29.108Z,52.90
2022-08-12T11:43:31.733Z,56.00
2022-08-12T11:46:54.462Z,53.00
2022-08-12T11:49:56.130Z,52.10
2022-08-12T11:52:57.925Z,51.70
2022-08-12T11:55:59.749Z,51.20
2022-08-12T12:02:23.182Z,53.00
2022-08-12T12:05:28.443Z,50.90
2022-08-12T12:08:44.025Z,52.20
2022-08-12T12:11:49.696Z,52.00
2022-08-12T12:14:54.092Z,50.20
2022-08-12T12:17:56.699Z,51.80
2022-08-12T12:21:04.015Z,52.20
2022-08-12T12:24:06.432Z,51.10
2022-08-12T12:27:08.840Z,50.40
2022-08-12T12:30:18.438Z,50.30
2022-08-12T12:33:56.997Z,50.00
2022-08-12T12:36:54.637Z,49.80
2022-08-12T12:39:58.330Z,49.30
2022-08-12T12:43:05.116Z,49.40
2022-08-12T12:46:07.247Z,50.70
2022-08-12T12:49:10.904Z,49.60
2022-08-12T12:52:19.815Z,48.90
2022-08-12T12:55:23.116Z,50.80
2022-08-12T12:58:25.072Z,51.20
2022-08-12T13:01:31.788Z,48.70
2022-08-12T13:04:37.640Z,48.30
2022-08-12T13:07:54.637Z,50.20
2022-08-12T13:11:03.354Z,49.00
2022-08-12T13:14:10.406Z,49.80
2022-08-12T13:17:16.570Z,48.00
2022-08-12T13:20:37.178Z,47.90
2022-08-12T13:23:44.797Z,48.70
2022-08-12T13:26:46.512Z,47.20
2022-08-12T13:29:48.916Z,47.30
2022-08-12T13:32:57.367Z,46.90
2022-08-12T13:36:04.887Z,46.10
2022-08-12T13:39:09.607Z,45.60
2022-08-12T13:42:14.260Z,47.00
2022-08-12T13:45:16.913Z,46.60
2022-08-12T13:48:19.893Z,45.30
2022-08-12T13:51:24.370Z,46.50
2022-08-12T13:54:26.392Z,46.60
2022-08-12T13:57:46.860Z,45.10
2022-08-12T14:00:51.975Z,44.70
2022-08-12T14:03:54.680Z,45.00
2022-08-12T14:06:56.286Z,46.20
2022-08-12T14:10:16.830Z,45.80
2022-08-12T14:14:03.496Z,43.60
2022-08-12T14:16:51.315Z,44.20
2022-08-12T14:20:12.384Z,44.80
2022-08-12T14:24:01.253Z,42.40
2022-08-12T14:26:36.226Z,43.50
2022-08-12T14:30:04.512Z,43.70
2022-08-12T14:33:09.094Z,43.20
2022-08-12T14:36:20.700Z,43.50
2022-08-12T14:39:23.111Z,42.90
2022-08-12T14:42:28.226Z,42.80
2022-08-12T14:45:44.857Z,42.60
2022-08-12T14:48:53.060Z,44.70
2022-08-12T14:52:54.093Z,43.60
2022-08-12T14:58:59.984Z,44.00
2022-08-12T15:02:03.364Z,43.00
2022-08-12T15:05:06.616Z,43.00
2022-08-12T15:08:22.472Z,42.10
2022-08-12T15:11:24.376Z,43.30
2022-08-12T15:14:45.931Z,43.40
2022-08-12T15:17:47.506Z,44.50
2022-08-12T15:21:11.467Z,44.40
2022-08-12T15:24:13.292Z,43.80
2022-08-12T15:27:14.877Z,44.80
2022-08-12T15:30:26.755Z,43.50
2022-08-12T15:33:45.352Z,42.90
2022-08-12T15:36:55.083Z,45.10
2022-08-12T15:40:01.403Z,44.90
2022-08-12T15:43:04.631Z,45.70
2022-08-12T15:46:15.442Z,46.60
2022-08-12T15:49:19.045Z,46.10
2022-08-12T15:52:27.132Z,45.30
2022-08-12T15:55:33.638Z,46.90
2022-08-12T15:58:44.025Z,45.90
2022-08-12T16:01:47.967Z,45.90
2022-08-12T16:04:51.373Z,46.50
2022-08-12T16:07:53.790Z,46.80
2022-08-12T16:10:56.922Z,47.30
2022-08-12T16:13:59.963Z,47.10
2022-08-12T16:17:01.846Z,45.70
2022-08-12T16:20:06.157Z,45.80
2022-08-12T16:23:35.835Z,46.00
2022-08-12T16:26:34.931Z,46.10
2022-08-12T16:29:53.212Z,46.30
2022-08-12T16:32:57.262Z,46.00
2022-08-12T16:35:58.860Z,46.10
2022-08-12T16:39:03.507Z,46.40
2022-08-12T16:42:05.381Z,45.70
2022-08-12T16:45:09.744Z,45.40
2022-08-12T16:48:35.338Z,45.20
2022-08-12T16:51:41.767Z,46.30
2022-08-12T16:54:47.922Z,46.00
2022-08-12T16:57:50.952Z,46.70
2022-08-12T17:01:02.925Z,46.70
2022-08-12T17:04:09.067Z,47.30
2022-08-12T17:07:16.619Z,45.20
2022-08-12T17:10:36.450Z,46.50
2022-08-12T17:13:42.959Z,46.00
2022-08-12T17:16:55.765Z,46.00
2022-08-12T17:20:34.577Z,45.80
2022-08-12T17:23:33.378Z,45.80
2022-08-12T17:26:53.877Z,46.10
2022-08-12T17:30:02.374Z,45.90
2022-08-12T17:33:06.948Z,46.60
2022-08-12T17:36:10.483Z,46.90
2022-08-12T17:39:12.499Z,46.40
2022-08-12T17:42:32.626Z,46.50
2022-08-12T17:45:42.229Z,46.70
2022-08-12T17:48:54.962Z,42.00
2022-08-12T17:52:02.716Z,41.80
2022-08-12T17:55:07.211Z,41.40
2022-08-12T17:58:37.839Z,42.00
2022-08-12T18:01:44.328Z,40.40
2022-08-12T18:05:05.080Z,43.20
2022-08-12T18:08:11.684Z,43.00
2022-08-12T18:12:03.965Z,44.50
2022-08-12T18:14:58.813Z,44.90
2022-08-12T18:18:02.289Z,45.50
2022-08-12T18:21:04.167Z,47.10
2022-08-12T18:24:05.927Z,46.80
2022-08-12T18:27:29.928Z,48.20
2022-08-12T18:30:35.865Z,48.40
2022-08-12T18:33:45.902Z,48.90
2022-08-12T18:36:51.973Z,49.20
2022-08-12T18:40:18.723Z,49.70
2022-08-12T18:43:20.436Z,48.10
2022-08-12T18:46:29.226Z,49.80
2022-08-12T18:49:38.789Z,49.40
2022-08-12T18:52:48.478Z,49.70
2022-08-12T18:55:57.332Z,50.20
2022-08-12T18:59:02.802Z,49.80
2022-08-12T19:02:21.240Z,51.20
2022-08-12T19:05:53.537Z,51.20
2022-08-12T19:08:49.234Z,51.00
2022-08-12T19:12:12.595Z,50.00
2022-08-12T19:15:25.534Z,49.20
2022-08-12T19:18:31.149Z,50.50
2022-08-12T19:21:37.320Z,52.10
2022-08-12T19:24:58.072Z,51.10
2022-08-12T19:28:00.545Z,50.00
2022-08-12T19:31:57.361Z,51.20
2022-08-12T19:38:27.074Z,50.30
2022-08-12T19:41:42.523Z,51.80
2022-08-12T19:44:52.325Z,50.60
2022-08-12T19:47:55.912Z,52.10
2022-08-12T19:50:58.011Z,50.80
2022-08-12T19:54:00.480Z,51.20
2022-08-12T19:57:02.344Z,51.30
2022-08-12T20:00:07.757Z,53.00
2022-08-12T20:03:39.380Z,51.10
2022-08-12T20:06:53.446Z,53.40
2022-08-12T20:09:56.051Z,53.30
2022-08-12T20:13:18.515Z,52.70
2022-08-12T20:16:47.542Z,52.20
2022-08-12T20:20:05.647Z,52.80
2022-08-12T20:23:08.773Z,51.80
2022-08-12T20:26:11.130Z,50.80
2022-08-12T20:29:13.783Z,51.80
2022-08-12T20:32:15.423Z,52.00
2022-08-12T20:35:24.356Z,51.00
2022-08-12T20:38:27.740Z,52.70
2022-08-12T20:41:30.154Z,52.20
2022-08-12T20:44:40.521Z,53.10
2022-08-12T20:47:47.370Z,50.90
2022-08-12T20:51:04.636Z,53.40
2022-08-12T20:54:08.646Z,53.70
2022-08-12T20:57:10.663Z,54.70
2022-08-12T21:00:17.945Z,55.00
2022-08-12T21:03:52.819Z,54.20
2022-08-12T21:07:09.681Z,53.30
2022-08-12T21:10:12.321Z,54.50
2022-08-12T21:13:20.528Z,54.60
2022-08-12T21:16:35.574Z,54.70
2022-08-12T21:19:52.731Z,55.00
2022-08-12T21:22:56.067Z,55.30
2022-08-12T21:26:01.386Z,54.90
2022-08-12T21:29:12.353Z,55.80
2022-08-12T21:32:36.385Z,56.20
2022-08-12T21:35:40.016Z,56.00
2022-08-12T21:38:43.140Z,57.60
2022-08-12T21:41:50.368Z,57.60
2022-08-12T21:45:47.692Z,57.10
2022-08-12T21:48:22.368Z,57.00
2022-08-12T21:51:24.116Z,57.00
2022-08-12T21:54:45.812Z,56.80
2022-08-12T21:57:54.123Z,57.20
2022-08-12T22:01:05.308Z,58.20
2022-08-12T22:04:30.523Z,57.20
2022-08-12T22:07:46.300Z,55.70
2022-08-12T22:10:56.170Z,57.10
2022-08-12T22:14:02.165Z,57.20
2022-08-12T22:17:10.876Z,57.80
2022-08-12T22:20:16.860Z,58.30
2022-08-12T22:23:21.709Z,58.50
2022-08-12T22:26:37.514Z,58.50
2022-08-12T22:30:00.937Z,58.50
2022-08-12T22:33:08.000Z,59.10
2022-08-12T22:36:24.261Z,58.90
2022-08-12T22:39:31.692Z,58.50
2022-08-12T22:42:52.030Z,58.70
2022-08-12T22:46:30.302Z,56.90
2022-08-12T22:49:37.101Z,56.80
2022-08-12T22:52:51.482Z,58.10
2022-08-12T22:55:59.796Z,58.50
2022-08-12T22:59:08.240Z,57.20
2022-08-12T23:02:11.379Z,58.50
2022-08-12T23:05:13.092Z,59.40
2022-08-12T23:08:17.873Z,59.00
2022-08-12T23:11:23.661Z,59.50
2022-08-12T23:14:28.909Z,59.30
2022-08-12T23:17:40.592Z,59.40
2022-08-12T23:20:43.104Z,57.60
2022-08-12T23:23:57.771Z,58.70
2022-08-12T23:27:43.976Z,58.10
2022-08-12T23:30:46.600Z,55.90
2022-08-12T23:34:00.819Z,57.50
2022-08-12T23:37:06.209Z,57.50
2022-08-12T23:40:15.301Z,58.40
2022-08-12T23:43:19.812Z,56.90
2022-08-12T23:46:25.813Z,57.30
2022-08-12T23:49:58.411Z,57.40
2022-08-12T23:52:51.655Z,57.10
2022-08-12T23:55:56.869Z,56.90
2022-08-12T23:59:00.254Z,57.20
